Time;durP1;ratioP1;P1;durP2;ratioP2;P2;SDS_P1;SDS_P2;PMS_P1;PMS_P2;Temp;Humidity;BMP_temperature;BMP_pressure;BME280_temperature;BME280_humidity;BME280_pressure;Samples;Min_cycle;Max_cycle;Signal;HPM_P1;HPM_P2
2023/01/20 00:01:47;;;;;;;1999.90;999.90;;;0.80;99.90;;;;;;5093367;28;20036;-75
2023/01/20 00:04:12;;;;;;;1999.90;999.90;;;0.80;99.90;;;;;;5094490;28;20103;-75
2023/01/20 00:06:38;;;;;;;1999.90;999.90;;;0.80;99.90;;;;;;5096880;28;20037;-75
2023/01/20 00:09:04;;;;;;;1999.90;999.90;;;0.90;99.90;;;;;;5096845;28;20032;-75
2023/01/20 00:11:30;;;;;;;1999.90;999.90;;;0.90;99.90;;;;;;5092599;28;20065;-75
2023/01/20 00:13:58;;;;;;;1999.90;999.90;;;0.90;99.90;;;;;;5076166;28;20478;-75
2023/01/20 00:16:25;;;;;;;1999.90;999.90;;;0.80;99.90;;;;;;5076396;28;20039;-75
2023/01/20 00:18:52;;;;;;;1999.90;999.90;;;0.80;99.90;;;;;;5078008;28;20025;-75
2023/01/20 00:21:17;;;;;;;1999.90;999.90;;;0.80;99.90;;;;;;5077786;28;20583;-75
2023/01/20 00:23:44;;;;;;;1999.90;999.90;;;0.80;99.90;;;;;;5077046;28;20041;-75
2023/01/20 00:26:13;;;;;;;1999.90;999.90;;;0.80;99.90;;;;;;5077476;28;20033;-75
2023/01/20 00:28:39;;;;;;;1999.90;999.90;;;0.80;99.90;;;;;;5077672;28;20037;-75
2023/01/20 00:31:12;;;;;;;1999.90;999.90;;;0.80;99.90;;;;;;5077911;28;20359;-75
2023/01/20 00:33:37;;;;;;;1999.90;999.90;;;0.80;99.90;;;;;;5077633;28;20115;-75
2023/01/20 00:36:03;;;;;;;1999.90;999.90;;;0.70;99.90;;;;;;5077608;28;20115;-75
2023/01/20 00:38:29;;;;;;;1999.90;999.90;;;0.70;99.90;;;;;;5089558;28;20036;-75
2023/01/20 00:40:55;;;;;;;1999.90;999.90;;;0.70;99.90;;;;;;5082062;28;20029;-75
2023/01/20 00:43:20;;;;;;;1999.90;999.90;;;0.70;99.90;;;;;;5077361;28;20033;-75
2023/01/20 00:45:46;;;;;;;1999.90;999.90;;;0.70;99.90;;;;;;5077413;28;20083;-75
2023/01/20 00:48:12;;;;;;;1999.90;999.90;;;0.60;99.90;;;;;;5077238;28;20080;-75
2023/01/20 00:50:37;;;;;;;1999.90;999.90;;;0.60;99.90;;;;;;5077455;28;20473;-75
2023/01/20 00:53:02;;;;;;;1999.90;999.90;;;0.60;99.90;;;;;;5077136;28;20045;-75
2023/01/20 00:55:28;;;;;;;1999.90;999.90;;;0.60;99.90;;;;;;5077253;28;20037;-75
2023/01/20 00:57:54;;;;;;;1999.90;999.90;;;0.60;99.90;;;;;;5077503;28;20033;-75
2023/01/20 01:00:19;;;;;;;1999.90;999.90;;;0.60;99.90;;;;;;5077675;28;20072;-75
2023/01/20 01:02:45;;;;;;;1999.90;999.90;;;0.60;99.90;;;;;;5077250;28;20064;-75
2023/01/20 01:05:10;;;;;;;1999.90;999.90;;;0.60;99.90;;;;;;5080439;28;20041;-75
2023/01/20 01:07:36;;;;;;;1999.90;999.90;;;0.60;99.90;;;;;;5080866;28;20037;-75
2023/01/20 01:10:01;;;;;;;1999.90;999.90;;;0.60;99.90;;;;;;5088084;28;20039;-75
2023/01/20 01:12:27;;;;;;;1999.90;999.90;;;0.60;99.90;;;;;;5096875;28;20044;-75
2023/01/20 01:14:52;;;;;;;1999.90;999.90;;;0.70;99.90;;;;;;5097165;28;20174;-75
2023/01/20 01:17:18;;;;;;;1999.90;999.90;;;0.70;99.90;;;;;;5097433;28;20043;-75
2023/01/20 01:19:43;;;;;;;1999.90;999.90;;;0.70;99.90;;;;;;5097563;28;20126;-75
2023/01/20 01:22:09;;;;;;;1999.90;999.90;;;0.70;99.90;;;;;;5095437;28;20086;-75
2023/01/20 01:24:34;;;;;;;1999.90;999.90;;;0.80;99.90;;;;;;5079023;28;20487;-75
2023/01/20 01:27:00;;;;;;;1999.90;999.90;;;0.80;99.90;;;;;;5054889;28;20034;-75
2023/01/20 01:29:26;;;;;;;1999.90;999.90;;;0.80;99.90;;;;;;5066230;28;20600;-75
2023/01/20 01:31:51;;;;;;;1999.90;999.90;;;0.80;99.90;;;;;;5097132;28;20413;-75
2023/01/20 01:34:17;;;;;;;1999.90;999.90;;;0.90;99.90;;;;;;5096893;28;20120;-75
2023/01/20 01:36:42;;;;;;;1999.90;999.90;;;0.80;99.90;;;;;;5096976;28;20047;-75
2023/01/20 01:39:08;;;;;;;1999.90;999.90;;;0.80;99.90;;;;;;5083388;28;20075;-75
2023/01/20 01:41:33;;;;;;;1999.90;999.90;;;0.80;99.90;;;;;;5076838;28;20033;-75
2023/01/20 01:44:09;;;;;;;1999.90;999.90;;;0.80;99.90;;;;;;5076279;28;20090;-75
2023/01/20 01:46:35;;;;;;;1999.90;999.90;;;0.80;99.90;;;;;;5074933;28;20052;-75
2023/01/20 01:49:18;;;;;;;1999.90;999.90;;;0.80;99.90;;;;;;5075126;28;20041;-75
2023/01/20 01:51:50;;;;;;;1999.90;999.90;;;0.70;99.90;;;;;;5076730;28;20453;-75
2023/01/20 01:54:20;;;;;;;1999.90;999.90;;;0.70;99.90;;;;;;5076131;28;20438;-75
2023/01/20 01:56:47;;;;;;;1999.90;999.90;;;0.80;99.90;;;;;;5076206;28;20506;-75
2023/01/20 01:59:15;;;;;;;1999.90;999.90;;;0.80;99.90;;;;;;5076215;28;20033;-75
2023/01/20 02:01:45;;;;;;;1999.90;999.90;;;0.80;99.90;;;;;;5076503;28;20124;-75
2023/01/20 02:04:13;;;;;;;1999.90;999.90;;;0.80;99.90;;;;;;5076351;28;20118;-75
2023/01/20 02:06:59;;;;;;;1999.90;999.90;;;0.80;99.90;;;;;;5076133;28;20056;-75
2023/01/20 02:09:26;;;;;;;1999.90;999.90;;;0.80;99.90;;;;;;5076259;28;20506;-75
2023/01/20 02:11:55;;;;;;;1999.90;999.90;;;0.80;99.90;;;;;;5074761;28;20041;-75
2023/01/20 02:14:25;;;;;;;1999.90;999.90;;;0.80;99.90;;;;;;5075657;28;20171;-75
2023/01/20 02:17:16;;;;;;;1999.90;999.90;;;0.80;99.90;;;;;;5076047;28;20033;-75
2023/01/20 02:20:12;;;;;;;1999.90;999.90;;;0.80;99.90;;;;;;5076067;28;20033;-75
2023/01/20 02:22:56;;;;;;;1999.90;999.90;;;0.90;99.90;;;;;;5076109;28;20041;-75
2023/01/20 02:25:33;;;;;;;1999.90;999.90;;;0.90;99.90;;;;;;5076136;28;20536;-75
2023/01/20 02:28:19;;;;;;;1999.90;999.90;;;0.90;99.90;;;;;;5073773;28;20048;-75
2023/01/20 02:30:54;;;;;;;1999.90;999.90;;;0.90;99.90;;;;;;5075813;28;20033;-75
2023/01/20 02:33:24;;;;;;;1999.90;999.90;;;0.90;99.90;;;;;;5075716;28;20059;-75
2023/01/20 02:35:58;;;;;;;1999.90;999.90;;;0.90;99.90;;;;;;5074782;28;20033;-75
2023/01/20 02:38:59;;;;;;;1999.90;999.90;;;0.80;99.90;;;;;;5075432;28;20465;-75
2023/01/20 02:41:41;;;;;;;1999.90;999.90;;;0.90;99.90;;;;;;5000443;28;20074;-75
2023/01/20 02:44:23;;;;;;;1999.90;999.90;;;0.80;99.90;;;;;;5083627;28;20056;-75
2023/01/20 02:46:56;;;;;;;1999.90;999.90;;;0.80;99.90;;;;;;5095588;28;20039;-75
2023/01/20 02:49:59;;;;;;;1999.90;999.90;;;0.80;99.90;;;;;;5095879;28;20511;-75
2023/01/20 02:52:31;;;;;;;1999.90;999.90;;;0.80;99.90;;;;;;5095365;28;20043;-75
2023/01/20 02:55:02;;;;;;;1999.90;999.90;;;0.70;99.90;;;;;;5076874;28;20116;-75
2023/01/20 02:57:34;;;;;;;1999.90;999.90;;;0.70;99.90;;;;;;5075539;28;20106;-75
2023/01/20 03:00:05;;;;;;;1999.90;999.90;;;0.60;99.90;;;;;;5075694;28;20087;-75
2023/01/20 03:02:34;;;;;;;1999.90;999.90;;;0.60;99.90;;;;;;5075260;28;20111;-75
2023/01/20 03:05:18;;;;;;;1999.90;999.90;;;0.70;99.90;;;;;;5075159;28;20517;-75
2023/01/20 03:07:47;;;;;;;1999.90;999.90;;;0.70;99.90;;;;;;5075085;28;20596;-75
2023/01/20 03:10:16;;;;;;;1999.90;999.90;;;0.70;99.90;;;;;;5075080;28;20120;-75
2023/01/20 03:12:47;;;;;;;1999.90;999.90;;;0.80;99.90;;;;;;5074125;28;20044;-75
2023/01/20 03:15:13;;;;;;;1999.90;999.90;;;0.70;99.90;;;;;;5054633;28;20037;-75
2023/01/20 03:17:39;;;;;;;1999.90;999.90;;;0.70;99.90;;;;;;5055023;28;20487;-75
2023/01/20 03:20:05;;;;;;;1999.90;999.90;;;0.70;99.90;;;;;;5083449;28;20040;-75
2023/01/20 03:22:32;;;;;;;1999.90;999.90;;;0.70;99.90;;;;;;5093927;28;20040;-75
2023/01/20 03:24:58;;;;;;;1999.90;999.90;;;0.70;99.90;;;;;;5095339;28;20082;-75
2023/01/20 03:27:25;;;;;;;1999.90;999.90;;;0.70;99.90;;;;;;5095178;28;20040;-75
2023/01/20 03:29:50;;;;;;;1999.90;999.90;;;0.70;99.90;;;;;;5095261;28;20028;-74
2023/01/20 03:32:17;;;;;;;1999.90;999.90;;;0.70;99.90;;;;;;5095061;28;20045;-74
2023/01/20 03:34:43;;;;;;;1999.90;999.90;;;0.60;99.90;;;;;;5095011;28;20502;-75
2023/01/20 03:37:10;;;;;;;1999.90;999.90;;;0.60;99.90;;;;;;5095155;28;20036;-75
2023/01/20 03:39:38;;;;;;;1999.90;999.90;;;0.50;99.90;;;;;;5093855;28;20034;-75
2023/01/20 03:42:16;;;;;;;1999.90;999.90;;;0.50;99.90;;;;;;5095100;28;20041;-75
2023/01/20 03:45:11;;;;;;;1999.90;999.90;;;0.50;99.90;;;;;;5093517;28;20029;-75
2023/01/20 03:47:55;;;;;;;1999.90;999.90;;;0.50;99.90;;;;;;5092716;28;20055;-76
2023/01/20 03:50:34;;;;;;;1999.90;999.90;;;0.50;99.90;;;;;;5095320;28;20394;-75
2023/01/20 03:53:21;;;;;;;1999.90;999.90;;;0.40;99.90;;;;;;5095790;28;20048;-75
2023/01/20 03:55:56;;;;;;;1999.90;999.90;;;0.40;99.90;;;;;;5094866;28;20032;-74
2023/01/20 03:58:29;;;;;;;1999.90;999.90;;;0.40;99.90;;;;;;5094650;28;20037;-75
2023/01/20 04:00:56;;;;;;;1999.90;999.90;;;0.40;99.90;;;;;;5095441;28;20037;-75
2023/01/20 04:03:29;;;;;;;1999.90;999.90;;;0.40;99.90;;;;;;5094797;28;20041;-75
2023/01/20 04:06:01;;;;;;;1999.90;999.90;;;0.40;99.90;;;;;;5094881;28;20024;-75
2023/01/20 04:08:30;;;;;;;1999.90;999.90;;;0.40;99.90;;;;;;5094847;28;20083;-75
2023/01/20 04:10:58;;;;;;;1999.90;999.90;;;0.50;99.90;;;;;;5092106;28;20159;-74
2023/01/20 04:13:23;;;;;;;1999.90;999.90;;;0.50;99.90;;;;;;5090153;22;20557;-74
2023/01/20 04:15:49;;;;;;;1999.90;999.90;;;0.50;99.90;;;;;;5074218;28;20040;-75
2023/01/20 04:18:19;;;;;;;1999.90;999.90;;;0.50;99.90;;;;;;5086241;28;20017;-75
2023/01/20 04:20:49;;;;;;;1999.90;999.90;;;0.50;99.90;;;;;;5090836;28;20133;-75
2023/01/20 04:23:38;;;;;;;1999.90;999.90;;;0.50;99.90;;;;;;5092068;28;20033;-75
2023/01/20 04:26:04;;;;;;;1999.90;999.90;;;0.50;99.90;;;;;;5086640;28;20091;-75
2023/01/20 04:28:31;;;;;;;1999.90;999.90;;;0.50;99.90;;;;;;5092377;28;20037;-75
2023/01/20 04:30:56;;;;;;;1999.90;999.90;;;0.50;99.90;;;;;;5094220;28;20056;-75
2023/01/20 04:33:22;;;;;;;1999.90;999.90;;;0.50;99.90;;;;;;5093964;28;20049;-75
2023/01/20 04:35:47;;;;;;;1999.90;999.90;;;0.50;99.90;;;;;;5094103;28;20375;-75
2023/01/20 04:38:13;;;;;;;1999.90;999.90;;;0.60;99.90;;;;;;5094386;28;20040;-75
2023/01/20 04:40:38;;;;;;;1999.90;999.90;;;0.50;99.90;;;;;;5092632;28;20478;-75
2023/01/20 04:43:04;;;;;;;1999.90;999.90;;;0.50;99.90;;;;;;5074101;28;20045;-75
2023/01/20 04:45:29;;;;;;;1999.90;999.90;;;0.50;99.90;;;;;;5072409;28;20490;-75
2023/01/20 04:47:55;;;;;;;1999.90;999.90;;;0.60;99.90;;;;;;5073622;28;20040;-75
2023/01/20 04:50:20;;;;;;;1999.90;999.90;;;0.50;99.90;;;;;;5075397;28;20092;-75
2023/01/20 04:52:46;;;;;;;1999.90;999.90;;;0.60;99.90;;;;;;5094165;28;20082;-75
2023/01/20 04:55:11;;;;;;;1999.90;999.90;;;0.60;99.90;;;;;;5079683;28;20104;-75
2023/01/20 04:57:37;;;;;;;1999.90;999.90;;;0.60;99.90;;;;;;5077223;28;20043;-75
2023/01/20 05:00:05;;;;;;;1999.90;999.90;;;0.60;99.90;;;;;;5076043;28;20029;-76
2023/01/20 05:02:30;;;;;;;1999.90;999.90;;;0.60;99.90;;;;;;5091613;28;20402;-75
2023/01/20 05:04:56;;;;;;;1999.90;999.90;;;0.60;99.90;;;;;;5081266;28;20048;-75
2023/01/20 05:07:21;;;;;;;1999.90;999.90;;;0.60;99.90;;;;;;5076819;28;20083;-75
2023/01/20 05:09:47;;;;;;;1999.90;999.90;;;0.60;99.90;;;;;;5075658;28;20028;-75
2023/01/20 05:12:12;;;;;;;1999.90;999.90;;;0.60;99.90;;;;;;5077092;28;20090;-75
2023/01/20 05:14:38;;;;;;;1999.90;999.90;;;0.70;99.90;;;;;;5089070;28;20043;-75
2023/01/20 05:17:04;;;;;;;1999.90;999.90;;;0.70;99.90;;;;;;5095604;28;20508;-75
2023/01/20 05:19:29;;;;;;;1999.90;999.90;;;0.60;99.90;;;;;;5096883;28;20474;-75
2023/01/20 05:21:55;;;;;;;1999.90;999.90;;;0.70;99.90;;;;;;5097159;28;20040;-75
2023/01/20 05:24:20;;;;;;;1999.90;999.90;;;0.60;99.90;;;;;;5095276;28;20039;-75
2023/01/20 05:26:46;;;;;;;1999.90;999.90;;;0.60;99.90;;;;;;5095177;28;20052;-75
2023/01/20 05:29:11;;;;;;;1999.90;999.90;;;0.60;99.90;;;;;;5096182;28;20028;-75
2023/01/20 05:31:41;;;;;;;1999.90;999.90;;;0.60;99.90;;;;;;5090046;28;20055;-75
2023/01/20 05:34:10;;;;;;;1999.90;999.90;;;0.60;99.90;;;;;;5074893;28;20531;-75
2023/01/20 05:36:35;;;;;;;1999.90;999.90;;;0.60;99.90;;;;;;5074875;28;20033;-75
2023/01/20 05:39:01;;;;;;;1999.90;999.90;;;0.60;99.90;;;;;;5075354;28;20072;-75
2023/01/20 05:41:26;;;;;;;1999.90;999.90;;;0.60;99.90;;;;;;5076778;28;20052;-75
2023/01/20 05:43:53;;;;;;;1999.90;999.90;;;0.70;99.90;;;;;;5078016;28;20075;-75
2023/01/20 05:46:19;;;;;;;1999.90;999.90;;;0.70;99.90;;;;;;5095181;28;20028;-75
2023/01/20 05:48:44;;;;;;;1999.90;999.90;;;0.70;99.90;;;;;;5096767;28;20033;-75
2023/01/20 05:51:10;;;;;;;1999.90;999.90;;;0.80;99.90;;;;;;5096429;28;20501;-76
2023/01/20 05:53:35;;;;;;;1999.90;999.90;;;0.80;99.90;;;;;;5093582;28;20057;-75
2023/01/20 05:56:02;;;;;;;1999.90;999.90;;;0.70;99.90;;;;;;5077092;28;20044;-75
2023/01/20 05:58:29;;;;;;;1999.90;999.90;;;0.70;99.90;;;;;;5090587;28;20552;-75
2023/01/20 06:01:02;;;;;;;1999.90;999.90;;;0.60;99.90;;;;;;5078193;28;20526;-75
2023/01/20 06:03:27;;;;;;;1999.90;999.90;;;0.60;99.90;;;;;;5094539;28;20037;-75
2023/01/20 06:06:01;;;;;;;1999.90;999.90;;;0.60;99.90;;;;;;5076059;28;20052;-76
2023/01/20 06:08:27;;;;;;;1999.90;999.90;;;0.60;99.90;;;;;;5076179;28;20037;-75
2023/01/20 06:10:53;;;;;;;1999.90;999.90;;;0.60;99.90;;;;;;5076254;28;20037;-75
2023/01/20 06:13:18;;;;;;;1999.90;999.90;;;0.50;99.90;;;;;;5075764;28;20506;-75
2023/01/20 06:15:44;;;;;;;1999.90;999.90;;;0.50;99.90;;;;;;5087344;28;20039;-76
2023/01/20 06:18:11;;;;;;;1999.90;999.90;;;0.40;99.90;;;;;;5076020;28;20040;-75
2023/01/20 06:20:37;;;;;;;1999.90;999.90;;;0.40;99.90;;;;;;5076234;28;20119;-74
2023/01/20 06:23:03;;;;;;;1999.90;999.90;;;0.40;99.90;;;;;;5071070;28;20637;-75
2023/01/20 06:25:28;;;;;;;1999.90;999.90;;;0.30;99.90;;;;;;5074740;28;20037;-76
2023/01/20 06:27:54;;;;;;;1999.90;999.90;;;0.30;99.90;;;;;;5075688;28;20398;-75
2023/01/20 06:30:20;;;;;;;1999.90;999.90;;;0.30;99.90;;;;;;5076219;28;20112;-75
2023/01/20 06:32:47;;;;;;;1999.90;999.90;;;0.30;99.90;;;;;;5074011;28;20061;-76
2023/01/20 06:35:12;;;;;;;1999.90;999.90;;;0.30;99.90;;;;;;5086605;28;20111;-75
2023/01/20 06:37:38;;;;;;;1999.90;999.90;;;0.30;99.90;;;;;;5095377;28;20123;-75
2023/01/20 06:40:04;;;;;;;1999.90;999.90;;;0.30;99.90;;;;;;5096110;28;20032;-75
2023/01/20 06:42:30;;;;;;;1999.90;999.90;;;0.30;99.90;;;;;;5095385;28;20108;-75
2023/01/20 06:44:56;;;;;;;1999.90;999.90;;;0.20;99.90;;;;;;5095194;28;20033;-74
2023/01/20 06:47:22;;;;;;;1999.90;999.90;;;0.30;99.90;;;;;;5075646;28;20037;-75
2023/01/20 06:49:47;;;;;;;1999.90;999.90;;;0.30;99.90;;;;;;5085577;28;20036;-73
2023/01/20 06:52:12;;;;;;;1999.90;999.90;;;0.20;99.90;;;;;;5095292;28;20045;-73
2023/01/20 06:54:38;;;;;;;1999.90;999.90;;;0.20;99.90;;;;;;5093831;28;20056;-74
2023/01/20 06:57:04;;;;;;;1999.90;999.90;;;0.20;99.90;;;;;;5095242;28;20048;-74
2023/01/20 06:59:29;;;;;;;1999.90;999.90;;;0.30;99.90;;;;;;5095040;28;20032;-74
2023/01/20 07:01:55;;;;;;;1999.90;999.90;;;0.30;99.90;;;;;;5076875;28;20506;-74
2023/01/20 07:04:20;;;;;;;1999.90;999.90;;;0.30;99.90;;;;;;5075003;28;20091;-74
2023/01/20 07:06:45;;;;;;;1999.90;999.90;;;0.30;99.90;;;;;;5075120;28;20041;-74
2023/01/20 07:09:12;;;;;;;1999.90;999.90;;;0.40;99.90;;;;;;5075257;28;20430;-74
2023/01/20 07:11:38;;;;;;;1999.90;999.90;;;0.50;99.90;;;;;;5082820;28;20048;-76
2023/01/20 07:14:05;;;;;;;1999.90;999.90;;;0.50;99.90;;;;;;5084994;28;20033;-74
2023/01/20 07:16:31;;;;;;;1999.90;999.90;;;0.50;99.90;;;;;;5086505;28;20082;-74
2023/01/20 07:18:56;;;;;;;1999.90;999.90;;;0.60;99.90;;;;;;5075147;28;20033;-74
2023/01/20 07:21:22;;;;;;;1999.90;999.90;;;0.60;99.90;;;;;;5075247;28;20033;-74
2023/01/20 07:23:48;;;;;;;1999.90;999.90;;;0.60;99.90;;;;;;5074752;28;20033;-74
2023/01/20 07:26:19;;;;;;;1999.90;999.90;;;0.50;99.90;;;;;;5078941;28;20498;-74
2023/01/20 07:28:45;;;;;;;1999.90;999.90;;;0.40;99.90;;;;;;5074769;28;20064;-74
2023/01/20 07:31:17;;;;;;;1999.90;999.90;;;0.40;99.90;;;;;;5074987;28;20025;-74
2023/01/20 07:33:42;;;;;;;1999.90;999.90;;;0.30;99.90;;;;;;5074711;28;20036;-74
2023/01/20 07:36:09;;;;;;;1999.90;999.90;;;0.20;99.90;;;;;;5074530;28;20037;-74
2023/01/20 07:38:35;;;;;;;1999.90;999.90;;;0.20;99.90;;;;;;5085965;28;20111;-74
2023/01/20 07:41:18;;;;;;;1999.90;999.90;;;0.20;99.90;;;;;;5070989;28;20075;-75
2023/01/20 07:43:49;;;;;;;1999.90;999.90;;;0.10;99.90;;;;;;5094980;28;20021;-75
2023/01/20 07:46:15;;;;;;;1999.90;999.90;;;0.10;99.90;;;;;;5094831;28;20060;-76
2023/01/20 07:48:41;;;;;;;1999.90;999.90;;;0.10;99.90;;;;;;5085325;28;20069;-74
2023/01/20 07:51:09;;;;;;;1999.90;999.90;;;0.20;99.90;;;;;;5075016;28;20359;-74
2023/01/20 07:53:40;;;;;;;1999.90;999.90;;;0.20;99.90;;;;;;5074086;28;20047;-72
2023/01/20 07:56:09;;;;;;;1999.90;999.90;;;0.20;99.90;;;;;;5067575;28;20450;-74
2023/01/20 07:58:35;;;;;;;1999.90;999.90;;;0.20;99.90;;;;;;5073054;28;20111;-72
2023/01/20 08:01:07;;;;;;;1999.90;999.90;;;0.20;99.90;;;;;;5074037;28;20032;-74
2023/01/20 08:03:32;;;;;;;1999.90;999.90;;;0.20;99.90;;;;;;5076253;28;20505;-74
2023/01/20 08:06:02;;;;;;;1999.90;999.90;;;0.20;99.90;;;;;;5087256;28;20111;-74
2023/01/20 08:08:28;;;;;;;1999.90;999.90;;;0.20;99.90;;;;;;5074788;28;20572;-74
2023/01/20 08:10:53;;;;;;;1999.90;999.90;;;0.20;99.90;;;;;;5073874;28;20040;-74
2023/01/20 08:13:19;;;;;;;1999.90;999.90;;;0.10;99.90;;;;;;5084567;28;20481;-74
2023/01/20 08:15:45;;;;;;;1999.90;999.90;;;0.20;99.90;;;;;;5078438;28;20494;-74
2023/01/20 08:18:10;;;;;;;1999.90;999.90;;;0.20;99.90;;;;;;5072629;28;20136;-76
2023/01/20 08:20:39;;;;;;;1999.90;999.90;;;0.10;99.90;;;;;;5072864;28;20382;-75
2023/01/20 08:23:05;;;;;;;1999.90;999.90;;;0.20;99.90;;;;;;5072969;28;20087;-75
2023/01/20 08:25:30;;;;;;;1999.90;999.90;;;0.10;99.90;;;;;;5093917;28;20082;-77
2023/01/20 08:27:56;;;;;;;1999.90;999.90;;;0.10;99.90;;;;;;5098368;28;20044;-78
2023/01/20 08:30:21;;;;;;;1999.90;999.90;;;0.00;99.90;;;;;;5095016;28;20045;-74
2023/01/20 08:32:47;;;;;;;1999.90;999.90;;;0.00;99.90;;;;;;5087936;28;20045;-73
2023/01/20 08:35:12;;;;;;;1999.90;999.90;;;-0.10;99.90;;;;;;5097212;28;20029;-74
2023/01/20 08:37:38;;;;;;;1999.90;999.90;;;-0.10;99.90;;;;;;5097462;28;20045;-72
2023/01/20 08:40:07;;;;;;;1999.90;999.90;;;-0.10;99.90;;;;;;5089092;28;20029;-72
2023/01/20 08:42:32;;;;;;;1999.90;999.90;;;-0.10;99.90;;;;;;5075699;28;20524;-74
2023/01/20 08:44:58;;;;;;;1999.90;999.90;;;0.00;99.90;;;;;;5077321;28;20045;-72
2023/01/20 08:47:23;;;;;;;1999.90;999.90;;;0.00;99.90;;;;;;5077012;28;20073;-72
2023/01/20 08:49:52;;;;;;;1999.90;999.90;;;0.00;99.90;;;;;;5075442;28;20425;-73
2023/01/20 08:52:18;;;;;;;1999.90;999.90;;;0.20;99.90;;;;;;5083319;28;20185;-73
2023/01/20 08:54:43;;;;;;;1999.90;999.90;;;0.20;99.90;;;;;;5097423;28;20553;-74
2023/01/20 08:57:09;;;;;;;1999.90;999.90;;;0.30;99.90;;;;;;5097303;28;20576;-72
2023/01/20 08:59:34;;;;;;;1999.90;999.90;;;0.30;99.90;;;;;;5092705;28;20072;-73
2023/01/20 09:02:00;;;;;;;1999.90;999.90;;;0.40;99.90;;;;;;5076962;28;20032;-76
2023/01/20 09:04:25;;;;;;;1999.90;999.90;;;0.50;99.90;;;;;;5097245;28;20490;-73
2023/01/20 09:06:51;;;;;;;1999.90;999.90;;;0.50;99.90;;;;;;5083803;28;20461;-73
2023/01/20 09:09:19;;;;;;;1999.90;999.90;;;0.60;99.90;;;;;;5076979;28;20028;-73
2023/01/20 09:11:49;;;;;;;1999.90;999.90;;;0.60;99.90;;;;;;5076688;28;20087;-73
2023/01/20 09:14:16;;;;;;;1999.90;999.90;;;0.70;99.90;;;;;;5076188;28;20048;-74
2023/01/20 09:16:41;;;;;;;1999.90;999.90;;;0.80;99.90;;;;;;5087987;28;20096;-73
2023/01/20 09:19:07;;;;;;;1999.90;999.90;;;0.90;99.90;;;;;;5085075;28;20034;-73
2023/01/20 09:21:32;;;;;;;1999.90;999.90;;;0.90;99.90;;;;;;5076805;28;20033;-73
2023/01/20 09:23:58;;;;;;;1999.90;999.90;;;1.00;99.90;;;;;;5076630;28;20116;-73
2023/01/20 09:26:24;;;;;;;1999.90;999.90;;;1.10;99.90;;;;;;5076536;28;20068;-73
2023/01/20 09:28:50;;;;;;;1999.90;999.90;;;1.40;99.90;;;;;;5074735;28;20052;-74
2023/01/20 09:31:15;;;;;;;1999.90;999.90;;;1.50;99.90;;;;;;5076422;28;20029;-73
2023/01/20 09:33:42;;;;;;;1999.90;999.90;;;1.70;99.90;;;;;;5075657;28;20037;-74
2023/01/20 09:36:09;;;;;;;1999.90;999.90;;;1.70;99.90;;;;;;5075137;28;20064;-74
2023/01/20 09:45:03;;;;;;;1999.90;999.90;;;1.90;99.90;;;;;;5075313;28;20037;-73
2023/01/20 09:47:34;;;;;;;1999.90;999.90;;;1.80;99.90;;;;;;4990521;28;20043;-73
2023/01/20 09:53:04;;;;;;;1999.90;999.90;;;1.50;99.90;;;;;;5074593;28;20124;-74
2023/01/20 09:55:32;;;;;;;1999.90;999.90;;;1.50;99.90;;;;;;5074257;28;20037;-74
2023/01/20 09:58:30;;;;;;;1999.90;999.90;;;1.40;99.90;;;;;;5074221;28;20466;-73
2023/01/20 10:01:35;;;;;;;1999.90;999.90;;;1.50;99.90;;;;;;5089263;28;20029;-73
2023/01/20 10:04:42;;;;;;;1999.90;999.90;;;1.50;99.90;;;;;;5059054;28;20781;-73
2023/01/20 10:07:08;;;;;;;1999.90;999.90;;;1.40;99.90;;;;;;5075860;28;20037;-73
2023/01/20 10:09:39;;;;;;;1999.90;999.90;;;1.40;99.90;;;;;;5076064;28;20041;-73
2023/01/20 10:12:08;;;;;;;1999.90;999.90;;;1.50;99.90;;;;;;5075854;28;20048;-73
2023/01/20 10:14:52;;;;;;;1999.90;999.90;;;1.70;99.90;;;;;;5073632;28;20084;-73
2023/01/20 10:17:27;;;;;;;1999.90;999.90;;;2.00;99.90;;;;;;5085631;28;20032;-74
2023/01/20 10:20:01;;;;;;;1999.90;999.90;;;2.30;99.90;;;;;;5075985;28;20037;-73
2023/01/20 10:22:44;;;;;;;1999.90;999.90;;;2.40;99.90;;;;;;5076067;28;20765;-72
2023/01/20 10:25:37;;;;;;;1999.90;999.90;;;2.60;99.90;;;;;;5075843;28;20037;-73
2023/01/20 10:28:21;;;;;;;1999.90;999.90;;;2.70;99.90;;;;;;5074369;28;20051;-73
2023/01/20 10:30:47;;;;;;;1999.90;999.90;;;2.60;99.90;;;;;;5074178;28;20793;-73
2023/01/20 10:33:19;;;;;;;1999.90;999.90;;;2.40;99.90;;;;;;5075157;28;20071;-73
2023/01/20 10:35:51;;;;;;;1999.90;999.90;;;2.30;99.90;;;;;;5069903;28;20039;-73
2023/01/20 10:38:20;;;;;;;1999.90;999.90;;;2.10;99.90;;;;;;5073799;28;20037;-73
2023/01/20 10:40:54;;;;;;;1999.90;999.90;;;2.10;99.90;;;;;;5075445;28;20040;-73
2023/01/20 10:43:20;;;;;;;1999.90;999.90;;;2.20;99.90;;;;;;5073701;28;20036;-73
2023/01/20 10:46:13;;;;;;;1999.90;999.90;;;2.00;99.90;;;;;;5093085;28;20025;-73
2023/01/20 10:48:57;;;;;;;1999.90;999.90;;;2.30;99.90;;;;;;5073023;28;20037;-73
2023/01/20 10:51:39;;;;;;;1999.90;999.90;;;2.30;99.90;;;;;;5075361;28;20516;-73
2023/01/20 10:54:29;;;;;;;1999.90;999.90;;;2.40;99.90;;;;;;5070653;28;20045;-73
2023/01/20 10:56:58;;;;;;;1999.90;999.90;;;2.30;99.90;;;;;;5055025;28;20025;-75
2023/01/20 10:59:35;;;;;;;1999.90;999.90;;;2.40;99.90;;;;;;5058831;28;20033;-73
2023/01/20 11:02:12;;;;;;;1999.90;999.90;;;2.30;99.90;;;;;;5075199;28;20565;-73
2023/01/20 11:04:37;;;;;;;1999.90;999.90;;;2.30;99.90;;;;;;5081784;28;20072;-76
2023/01/20 11:07:07;;;;;;;1999.90;999.90;;;2.30;99.90;;;;;;5074832;28;20037;-74
2023/01/20 11:09:36;;;;;;;1999.90;999.90;;;2.40;99.90;;;;;;5076988;28;20135;-73
2023/01/20 11:12:06;;;;;;;1999.90;999.90;;;2.50;99.90;;;;;;5058155;28;20496;-73
2023/01/20 11:14:32;;;;;;;1999.90;999.90;;;2.30;99.90;;;;;;5063407;28;20043;-74
2023/01/20 11:17:03;;;;;;;1999.90;999.90;;;2.30;99.90;;;;;;5093337;28;20071;-73
2023/01/20 11:19:45;;;;;;;1999.90;999.90;;;2.40;99.90;;;;;;5095088;28;20056;-74
2023/01/20 11:22:21;;;;;;;1999.90;999.90;;;2.50;99.90;;;;;;5095381;28;20040;-74
2023/01/20 11:24:47;;;;;;;1999.90;999.90;;;2.40;99.90;;;;;;5093270;28;20025;-74
2023/01/20 11:27:18;;;;;;;1999.90;999.90;;;2.40;99.90;;;;;;5087316;28;20028;-72
2023/01/20 11:29:50;;;;;;;1999.90;999.90;;;2.40;99.90;;;;;;5075127;28;20435;-73
2023/01/20 11:32:37;;;;;;;1999.90;999.90;;;2.30;99.90;;;;;;5074229;28;20037;-72
2023/01/20 11:35:24;;;;;;;1999.90;999.90;;;2.30;99.90;;;;;;5074763;28;20036;-72
2023/01/20 11:37:50;;;;;;;1999.90;999.90;;;2.30;99.90;;;;;;5072839;28;20044;-74
2023/01/20 11:40:24;;;;;;;1999.90;999.90;;;2.20;99.90;;;;;;5074694;28;20083;-74
2023/01/20 11:42:52;;;;;;;1999.90;999.90;;;2.30;99.90;;;;;;5053904;28;20038;-71
2023/01/20 11:45:35;;;;;;;1999.90;999.90;;;2.40;99.90;;;;;;5054495;28;20025;-73
2023/01/20 11:48:12;;;;;;;1999.90;999.90;;;2.40;99.90;;;;;;5054314;28;20041;-71
2023/01/20 11:50:59;;;;;;;1999.90;999.90;;;2.40;99.90;;;;;;5072129;28;20036;-71
2023/01/20 11:53:30;;;;;;;1999.90;999.90;;;2.40;99.90;;;;;;5072649;28;20128;-71
2023/01/20 11:55:57;;;;;;;1999.90;999.90;;;2.40;99.90;;;;;;5074532;28;20025;-71
2023/01/20 11:58:30;;;;;;;1999.90;999.90;;;2.30;99.90;;;;;;5073932;28;20043;-71
2023/01/20 12:01:04;;;;;;;1999.90;999.90;;;2.40;99.90;;;;;;5081274;28;20517;-71
2023/01/20 12:03:45;;;;;;;1999.90;999.90;;;2.40;99.90;;;;;;5074068;28;20052;-71
2023/01/20 12:06:28;;;;;;;1999.90;999.90;;;2.40;99.90;;;;;;5074291;28;20060;-73
2023/01/20 12:09:05;;;;;;;1999.90;999.90;;;2.40;99.90;;;;;;5072702;28;20036;-71
2023/01/20 12:11:35;;;;;;;1999.90;999.90;;;2.40;99.90;;;;;;5074099;28;20051;-71
2023/01/20 12:14:38;;;;;;;1999.90;999.90;;;2.40;99.90;;;;;;5073698;28;20052;-71
2023/01/20 12:17:14;;;;;;;1999.90;999.90;;;2.50;99.90;;;;;;5072519;28;20164;-71
2023/01/20 12:19:46;;;;;;;1999.90;999.90;;;2.50;99.90;;;;;;5073935;28;20045;-70
2023/01/20 12:22:21;;;;;;;1999.90;999.90;;;2.60;99.90;;;;;;5074404;28;20124;-74
2023/01/20 12:25:09;;;;;;;1999.90;999.90;;;2.80;99.90;;;;;;5073815;28;20040;-71
2023/01/20 12:27:42;;;;;;;1999.90;999.90;;;3.10;99.90;;;;;;5082766;28;20025;-70
2023/01/20 12:30:42;;;;;;;1999.90;999.90;;;3.30;99.90;;;;;;5072621;28;20059;-71
2023/01/20 12:33:27;;;;;;;1999.90;999.90;;;3.40;99.90;;;;;;5041307;28;20068;-72